Time;durP1;ratioP1;P1;durP2;ratioP2;P2;SDS_P1;SDS_P2;PMS_P1;PMS_P2;Temp;Humidity;BMP_temperature;BMP_pressure;BME280_temperature;BME280_humidity;BME280_pressure;Samples;Min_cycle;Max_cycle;Signal;HPM_P1;HPM_P2
2022/12/19 00:00:16;;;;;;;;;5.50;5.50;;;;;19.34;32.82;101421.19;5034119;28;45238;-68
2022/12/19 00:02:41;;;;;;;;;7.25;6.00;;;;;19.34;33.05;101421.19;5042424;28;45426;-68
2022/12/19 00:05:07;;;;;;;;;5.25;4.75;;;;;19.34;32.76;101413.28;5053926;28;45219;-68
2022/12/19 00:07:32;;;;;;;;;7.50;5.00;;;;;19.35;32.88;101412.31;5053966;28;45277;-68
2022/12/19 00:09:58;;;;;;;;;2.00;2.00;;;;;19.34;33.02;101414.13;5054004;28;45340;-68
2022/12/19 00:12:23;;;;;;;;;4.25;4.25;;;;;19.28;32.86;101404.19;5053616;28;45250;-68
2022/12/19 00:14:48;;;;;;;;;7.50;6.50;;;;;19.34;32.92;101408.00;5053725;28;45271;-68
2022/12/19 00:17:14;;;;;;;;;4.50;4.50;;;;;19.28;33.09;101394.44;5053919;28;45404;-68
2022/12/19 00:19:39;;;;;;;;;4.00;3.75;;;;;19.33;33.10;101406.38;5053291;28;45374;-68
2022/12/19 00:22:04;;;;;;;;;7.75;4.00;;;;;19.33;32.83;101394.00;5053932;28;45404;-68
2022/12/19 00:24:30;;;;;;;;;7.00;5.00;;;;;19.34;32.85;101400.09;5053729;28;45524;-68
2022/12/19 00:26:55;;;;;;;;;7.00;7.00;;;;;19.33;32.92;101394.00;5053496;28;45493;-68
2022/12/19 00:29:20;;;;;;;;;7.50;5.75;;;;;19.34;32.78;101402.72;5053863;28;45339;-68
2022/12/19 00:31:46;;;;;;;;;4.25;4.00;;;;;19.33;32.85;101411.66;5053841;28;45375;-68
2022/12/19 00:34:11;;;;;;;;;5.25;4.75;;;;;19.33;32.81;101419.56;5053551;28;46037;-68
2022/12/19 00:36:36;;;;;;;;;4.25;4.25;;;;;19.24;33.00;101400.16;5053624;28;45459;-68
2022/12/19 00:39:04;;;;;;;;;4.75;4.75;;;;;19.34;32.94;101423.84;5053792;28;45543;-68
2022/12/19 00:41:32;;;;;;;;;4.50;4.50;;;;;19.33;33.08;101417.75;5053354;28;45425;-68
2022/12/19 00:44:04;;;;;;;;;5.75;5.00;;;;;19.33;32.99;101409.00;5053472;28;45323;-68
2022/12/19 00:46:31;;;;;;;;;5.25;3.75;;;;;19.33;32.84;101411.66;5053514;28;45313;-68
2022/12/19 00:48:57;;;;;;;;;7.75;5.25;;;;;19.33;32.94;101401.09;5053442;28;45362;-68
2022/12/19 00:51:27;;;;;;;;;5.25;4.50;;;;;19.20;33.05;101378.53;5053527;28;45458;-68
2022/12/19 00:53:55;;;;;;;;;6.75;5.00;;;;;19.34;33.17;101398.28;5051191;28;47328;-68
2022/12/19 00:56:26;;;;;;;;;3.50;3.50;;;;;19.34;33.06;101397.47;5032915;28;45359;-68
2022/12/19 00:58:52;;;;;;;;;4.50;4.50;;;;;19.34;33.12;101397.47;5033385;28;45311;-68
2022/12/19 01:01:25;;;;;;;;;4.75;4.25;;;;;19.34;32.88;101400.09;5033040;28;45355;-68
2022/12/19 01:03:51;;;;;;;;;4.00;3.50;;;;;19.32;32.84;101394.97;5051158;28;47186;-68
2022/12/19 01:06:17;;;;;;;;;6.25;5.75;;;;;19.33;33.13;101391.38;5053147;28;45474;-68
2022/12/19 01:08:42;;;;;;;;;6.25;4.75;;;;;19.31;33.17;101385.38;5053418;28;45326;-68
2022/12/19 01:11:08;;;;;;;;;5.25;3.75;;;;;19.34;33.23;101389.53;5052880;28;45394;-68
2022/12/19 01:13:35;;;;;;;;;7.25;5.50;;;;;19.32;33.07;101396.78;5053133;28;45432;-68
2022/12/19 01:16:02;;;;;;;;;5.00;5.00;;;;;19.32;33.13;101394.97;5053183;28;45394;-68
2022/12/19 01:18:28;;;;;;;;;4.50;4.00;;;;;19.33;33.28;101401.09;5035142;28;45309;-68
2022/12/19 01:20:53;;;;;;;;;4.00;4.00;;;;;19.33;32.94;101396.66;5053268;28;45306;-68
2022/12/19 01:23:18;;;;;;;;;5.00;5.00;;;;;19.33;33.02;101390.53;5052530;28;46448;-68
2022/12/19 01:25:51;;;;;;;;;5.00;5.00;;;;;19.34;32.97;101400.09;5052683;28;45372;-68
2022/12/19 01:28:17;;;;;;;;;4.00;4.00;;;;;19.28;33.02;101385.72;5053041;28;45165;-68
2022/12/19 01:30:42;;;;;;;;;5.25;4.75;;;;;19.33;33.06;101398.44;5052208;28;45234;-68
2022/12/19 01:33:11;;;;;;;;;3.00;3.00;;;;;19.34;32.99;101408.00;5052978;28;46955;-68
2022/12/19 01:35:36;;;;;;;;;6.50;5.75;;;;;19.33;33.02;101411.66;5052727;28;45443;-68
2022/12/19 01:38:02;;;;;;;;;4.75;4.75;;;;;19.32;33.14;101416.09;5052870;28;45435;-68
2022/12/19 01:40:27;;;;;;;;;8.00;4.50;;;;;19.33;33.39;101407.22;5052587;28;45620;-68
2022/12/19 01:42:52;;;;;;;;;4.25;3.00;;;;;19.34;33.22;101411.50;5052613;28;47098;-68
2022/12/19 01:45:21;;;;;;;;;5.00;5.00;;;;;19.34;33.36;101403.56;5052801;28;45428;-68
2022/12/19 01:48:16;;;;;;;;;3.25;3.25;;;;;19.35;33.08;101404.41;5052839;28;45423;-68
2022/12/19 01:50:55;;;;;;;;;4.75;4.75;;;;;19.30;33.18;101391.66;5052718;28;45350;-68
2022/12/19 01:53:25;;;;;;;;;4.00;4.00;;;;;19.36;33.25;101392.88;5052155;28;45396;-68
2022/12/19 01:55:50;;;;;;;;;4.75;4.75;;;;;19.31;33.22;101381.94;5033856;28;45185;-68
2022/12/19 01:58:17;;;;;;;;;4.75;4.00;;;;;19.36;33.16;101387.59;5032467;28;45205;-68
2022/12/19 02:00:43;;;;;;;;;4.25;3.25;;;;;19.37;33.11;101397.16;5032602;28;45228;-68
2022/12/19 02:03:13;;;;;;;;;4.75;4.75;;;;;19.38;33.27;101406.75;5044188;28;46376;-68
2022/12/19 02:05:39;;;;;;;;;4.75;3.75;;;;;19.36;33.19;101396.31;5052353;28;45482;-68
2022/12/19 02:08:06;;;;;;;;;3.50;3.50;;;;;19.37;33.12;101398.00;5052263;28;45860;-68
2022/12/19 02:10:31;;;;;;;;;7.50;4.75;;;;;19.37;33.03;101394.53;5052243;28;45528;-68
2022/12/19 02:12:57;;;;;;;;;4.00;4.00;;;;;19.39;33.27;101382.00;5052140;28;46137;-68
2022/12/19 02:15:24;;;;;;;;;5.50;4.25;;;;;19.37;33.32;101390.09;5052151;28;45284;-68
2022/12/19 02:17:53;;;;;;;;;5.75;3.50;;;;;19.37;33.39;101395.38;5052344;28;45421;-68
2022/12/19 02:21:02;;;;;;;;;4.25;4.25;;;;;19.38;33.38;101388.28;5052091;28;45413;-68
2022/12/19 02:23:43;;;;;;;;;5.25;4.00;;;;;19.37;33.42;101389.25;4950616;28;47304;-68
2022/12/19 02:26:29;;;;;;;;;3.50;1.25;;;;;19.37;33.45;101397.16;4951063;28;45428;-68
2022/12/19 02:29:09;;;;;;;;;4.00;4.00;;;;;19.30;33.18;101375.84;4951050;28;45289;-68
2022/12/19 02:31:45;;;;;;;;;4.25;4.25;;;;;19.26;33.09;101367.38;4950985;28;45476;-68
2022/12/19 02:34:36;;;;;;;;;3.50;3.50;;;;;19.38;33.47;101385.66;4950723;28;46197;-68
2022/12/19 02:37:07;;;;;;;;;4.75;4.75;;;;;19.36;33.00;101383.13;4950358;28;45461;-67
2022/12/19 02:39:40;;;;;;;;;3.75;3.75;;;;;19.38;33.41;101370.66;4950967;28;45416;-68
2022/12/19 02:42:10;;;;;;;;;4.50;4.00;;;;;19.37;33.39;101381.34;4952501;28;45411;-68
2022/12/19 02:44:40;;;;;;;;;3.75;3.75;;;;;19.37;33.16;101387.44;4953766;28;47004;-68
2022/12/19 02:47:07;;;;;;;;;6.75;4.00;;;;;19.37;33.24;101376.88;4953780;28;45468;-68
2022/12/19 02:49:35;;;;;;;;;5.50;5.00;;;;;19.28;33.55;101351.41;4953806;28;45449;-68
2022/12/19 02:52:17;;;;;;;;;4.50;4.25;;;;;19.38;33.38;101383.00;4953671;28;45382;-68
2022/12/19 02:54:42;;;;;;;;;4.25;3.25;;;;;19.37;33.59;101381.34;4944870;28;45474;-68
2022/12/19 02:57:32;;;;;;;;;4.00;4.00;;;;;19.38;33.43;101380.38;4963616;28;45444;-68
2022/12/19 03:00:09;;;;;;;;;0.75;0.00;;;;;19.38;33.22;101383.00;5014897;28;45390;-67
2022/12/19 03:02:45;;;;;;;;;4.25;4.25;;;;;19.36;33.17;101383.13;5029627;28;45546;-68
2022/12/19 03:05:25;;;;;;;;;2.25;2.25;;;;;19.35;33.32;101378.03;5055452;27;45503;-68
2022/12/19 03:07:51;;;;;;;;;3.25;3.00;;;;;19.36;33.52;101380.50;5055508;27;45229;-68
2022/12/19 03:10:33;;;;;;;;;4.00;4.00;;;;;19.37;33.29;101376.06;5054627;28;45237;-68
2022/12/19 03:13:25;;;;;;;;;4.50;4.00;;;;;19.36;33.62;101362.03;5054788;28;45240;-68
2022/12/19 03:15:52;;;;;;;;;3.75;3.75;;;;;19.37;33.74;101360.22;5054397;28;45477;-68
2022/12/19 03:18:18;;;;;;;;;4.25;3.50;;;;;19.34;33.57;101352.59;5054594;28;45458;-68
2022/12/19 03:20:55;;;;;;;;;4.25;3.75;;;;;18.97;33.88;101289.22;5054375;28;45466;-68
2022/12/19 03:23:21;;;;;;;;;4.00;4.00;;;;;19.37;33.46;101347.03;5054646;28;45228;-68
2022/12/19 03:25:51;;;;;;;;;5.00;3.75;;;;;19.36;33.30;101362.03;5036265;28;45686;-68
2022/12/19 03:28:29;;;;;;;;;3.75;3.75;;;;;19.37;33.39;101357.59;5054492;28;45455;-68
2022/12/19 03:30:58;;;;;;;;;6.25;5.25;;;;;19.26;33.56;101348.91;5054461;28;45383;-68
2022/12/19 03:33:28;;;;;;;;;5.50;5.00;;;;;19.33;33.52;101356.22;5054573;28;45352;-68
2022/12/19 03:35:56;;;;;;;;;4.25;2.75;;;;;19.37;33.46;101368.13;5053802;28;47058;-68
2022/12/19 03:38:21;;;;;;;;;4.25;3.75;;;;;19.36;33.30;101372.59;5054287;28;45450;-68
2022/12/19 03:40:48;;;;;;;;;4.00;3.75;;;;;19.37;33.68;101376.88;5054404;28;45321;-68
2022/12/19 03:43:16;;;;;;;;;4.75;4.00;;;;;19.38;33.45;101372.44;5054486;28;45463;-68
2022/12/19 03:46:21;;;;;;;;;4.00;4.00;;;;;19.37;33.40;101363.69;5054188;28;46044;-68
2022/12/19 03:48:50;;;;;;;;;3.75;3.50;;;;;19.38;33.74;101380.38;4954089;28;45310;-68
2022/12/19 03:51:36;;;;;;;;;5.00;3.50;;;;;19.38;33.73;101362.72;4952834;28;45344;-68
2022/12/19 03:54:25;;;;;;;;;4.75;4.00;;;;;19.35;33.53;101355.09;4948966;28;45281;-68
2022/12/19 03:57:05;;;;;;;;;1.75;1.75;;;;;19.36;33.66;101375.22;4933574;28;46855;-68
2022/12/19 03:59:44;;;;;;;;;3.25;3.25;;;;;19.35;33.36;101365.66;4933691;28;45366;-68
2022/12/19 04:02:13;;;;;;;;;3.75;3.75;;;;;19.36;33.60;101372.59;4937349;28;45394;-68
2022/12/19 04:04:43;;;;;;;;;4.00;4.00;;;;;19.35;33.41;101378.84;4952724;28;45450;-67
2022/12/19 04:07:11;;;;;;;;;3.75;3.75;;;;;19.29;33.64;101372.34;4952776;28;45953;-68
2022/12/19 04:09:40;;;;;;;;;3.25;3.00;;;;;19.37;33.82;101386.63;4952771;28;45471;-68
2022/12/19 04:12:11;;;;;;;;;2.00;2.00;;;;;19.37;33.76;101386.63;4952891;28;45293;-68
2022/12/19 04:14:37;;;;;;;;;5.00;5.00;;;;;19.34;33.54;101385.09;4952789;28;45402;-68
2022/12/19 04:17:20;;;;;;;;;4.00;4.00;;;;;19.31;33.46;101374.03;4952614;28;46286;-68
2022/12/19 04:19:45;;;;;;;;;2.75;2.75;;;;;19.36;33.45;101390.25;4952380;28;45480;-68
2022/12/19 04:22:17;;;;;;;;;4.00;3.25;;;;;19.35;33.67;101384.13;4981694;28;45409;-68
2022/12/19 04:24:45;;;;;;;;;3.50;3.00;;;;;19.25;33.50;101371.00;5054041;28;45368;-68
2022/12/19 04:27:12;;;;;;;;;3.25;3.00;;;;;19.37;33.79;101390.09;5053610;28;46094;-68
2022/12/19 04:29:38;;;;;;;;;2.75;2.75;;;;;19.37;33.45;101370.78;5053555;28;45394;-68
2022/12/19 04:32:07;;;;;;;;;4.25;2.75;;;;;19.35;33.75;101370.94;5053961;28;45322;-68
2022/12/19 04:34:32;;;;;;;;;3.75;3.75;;;;;19.28;33.56;101364.59;5053447;28;45381;-68
2022/12/19 04:37:01;;;;;;;;;4.25;4.25;;;;;19.37;33.69;101363.69;5053448;28;47155;-68
2022/12/19 04:39:27;;;;;;;;;5.75;3.75;;;;;19.39;33.71;101368.81;5053644;28;45369;-67
2022/12/19 04:41:52;;;;;;;;;4.00;3.75;;;;;19.40;33.49;101366.03;5053741;28;45279;-68
2022/12/19 04:44:18;;;;;;;;;4.00;4.00;;;;;19.39;33.61;101350.34;5053593;28;45332;-68
2022/12/19 04:46:43;;;;;;;;;3.25;3.00;;;;;19.39;33.67;101353.81;5053505;28;46337;-68
2022/12/19 04:49:08;;;;;;;;;5.50;3.75;;;;;19.34;33.79;101340.25;5053135;28;45367;-68
2022/12/19 04:51:34;;;;;;;;;3.00;3.00;;;;;19.42;33.71;101354.50;5053686;28;45317;-68
2022/12/19 04:53:59;;;;;;;;;5.50;3.75;;;;;19.41;33.67;101351.03;5032426;28;45641;-68
2022/12/19 04:56:24;;;;;;;;;6.25;4.50;;;;;19.40;33.61;101354.66;5033277;28;45312;-68
2022/12/19 04:58:58;;;;;;;;;3.00;3.00;;;;;19.42;33.82;101354.50;5033269;28;45352;-68
2022/12/19 05:01:24;;;;;;;;;2.75;2.75;;;;;19.42;33.71;101351.84;5033196;28;45503;-68
2022/12/19 05:03:49;;;;;;;;;3.75;3.75;;;;;19.42;33.60;101342.13;5050531;28;45349;-68
2022/12/19 05:06:14;;;;;;;;;3.00;3.00;;;;;19.41;33.85;101356.31;5053135;28;45363;-68
2022/12/19 05:08:41;;;;;;;;;2.50;2.50;;;;;19.40;33.57;101347.56;5053253;28;45359;-68
2022/12/19 05:11:09;;;;;;;;;5.00;3.50;;;;;19.42;33.88;101338.66;5053274;28;45362;-67
2022/12/19 05:13:35;;;;;;;;;2.50;2.50;;;;;19.42;33.64;101336.84;5053235;28;45329;-68
2022/12/19 05:16:03;;;;;;;;;6.00;4.50;;;;;19.43;33.88;101329.78;5053112;28;46270;-68
2022/12/19 05:18:29;;;;;;;;;3.25;3.25;;;;;19.42;33.74;101330.75;5052848;28;45769;-68
2022/12/19 05:20:55;;;;;;;;;5.00;4.25;;;;;19.35;33.94;101318.16;5053169;28;45269;-68
2022/12/19 05:23:21;;;;;;;;;4.00;4.00;;;;;19.43;33.96;101332.41;5052989;28;45256;-68
2022/12/19 05:25:46;;;;;;;;;5.00;4.00;;;;;19.42;33.80;101338.66;5052914;28;46136;-68
2022/12/19 05:28:12;;;;;;;;;3.50;3.50;;;;;19.34;33.91;101344.69;5052918;28;45329;-68
2022/12/19 05:30:38;;;;;;;;;3.00;3.00;;;;;19.42;33.97;101359.78;5053016;28;45164;-68
2022/12/19 05:33:03;;;;;;;;;3.50;3.50;;;;;19.42;33.67;101363.25;5052738;28;45210;-68
2022/12/19 05:35:29;;;;;;;;;3.50;2.75;;;;;19.43;33.77;101350.88;5052689;28;46063;-68
2022/12/19 05:37:54;;;;;;;;;2.75;2.75;;;;;19.42;33.98;101336.84;5053688;27;45431;-68
2022/12/19 05:40:19;;;;;;;;;3.00;3.00;;;;;19.34;34.07;101329.69;5052283;28;45407;-68
2022/12/19 05:42:45;;;;;;;;;2.50;2.50;;;;;19.42;33.69;101341.28;5052899;28;45400;-68
2022/12/19 05:45:10;;;;;;;;;3.25;3.25;;;;;19.36;33.79;101332.19;5052639;28;47036;-68
2022/12/19 05:47:35;;;;;;;;;3.75;3.75;;;;;19.42;33.88;101336.84;5052459;28;45507;-68
2022/12/19 05:50:01;;;;;;;;;4.00;3.50;;;;;19.42;33.85;101326.28;5052808;28;45354;-68
2022/12/19 05:52:26;;;;;;;;;3.00;3.00;;;;;19.39;33.91;101329.22;5052741;28;45348;-68
2022/12/19 05:54:52;;;;;;;;;2.75;2.75;;;;;19.41;34.03;101348.41;5042103;28;45989;-68
2022/12/19 05:57:17;;;;;;;;;3.00;3.00;;;;;19.41;33.88;101340.50;5032427;28;45987;-68
2022/12/19 05:59:42;;;;;;;;;4.75;3.25;;;;;19.42;33.72;101341.28;5032561;28;45440;-68
2022/12/19 06:02:08;;;;;;;;;4.25;4.25;;;;;19.38;33.71;101346.06;5035504;28;45432;-68
2022/12/19 06:04:52;;;;;;;;;4.50;4.50;;;;;19.41;33.95;101348.41;5052307;28;47333;-68
2022/12/19 06:07:18;;;;;;;;;3.00;3.00;;;;;19.42;34.19;101349.22;5052433;28;45407;-68
2022/12/19 06:09:43;;;;;;;;;4.50;3.50;;;;;19.40;34.08;101339.66;5052294;28;45311;-68
2022/12/19 06:12:08;;;;;;;;;4.00;4.00;;;;;19.42;33.90;101351.84;5052499;28;45444;-68
2022/12/19 06:14:34;;;;;;;;;2.50;2.25;;;;;19.41;33.91;101345.78;5051737;28;46398;-68
2022/12/19 06:16:59;;;;;;;;;3.00;2.00;;;;;19.34;34.13;101342.88;5053877;28;45318;-68
2022/12/19 06:19:24;;;;;;;;;5.00;2.50;;;;;19.37;33.93;101337.31;5055519;28;45497;-68
2022/12/19 06:21:50;;;;;;;;;5.25;3.25;;;;;19.42;33.96;101362.41;5055463;28;45459;-69
2022/12/19 06:24:15;;;;;;;;;4.25;2.75;;;;;19.40;34.06;101355.50;5055245;28;46140;-69
2022/12/19 06:26:41;;;;;;;;;5.00;5.00;;;;;19.40;33.89;101360.75;5055275;28;45365;-66
2022/12/19 06:29:06;;;;;;;;;3.00;2.75;;;;;19.41;33.99;101356.31;5054922;28;45287;-68
2022/12/19 06:31:31;;;;;;;;;4.50;2.25;;;;;19.41;34.38;101364.25;5055297;28;45993;-68
2022/12/19 06:33:57;;;;;;;;;3.00;3.00;;;;;19.37;34.11;101357.59;5054988;28;46253;-68
2022/12/19 06:36:25;;;;;;;;;3.50;2.50;;;;;19.39;33.92;101371.44;5055215;28;45330;-68
2022/12/19 06:38:52;;;;;;;;;2.25;2.25;;;;;19.33;33.97;101354.44;5055058;28;45239;-68
2022/12/19 06:44:05;;;;;;;;;2.25;2.25;;;;;19.33;34.27;101346.53;5054750;28;45422;-68
2022/12/19 06:46:30;;;;;;;;;4.00;2.75;;;;;19.42;34.14;101351.84;5054970;28;45433;-68
2022/12/19 06:48:56;;;;;;;;;3.75;2.75;;;;;19.27;34.11;101331.28;5055017;28;45294;-68
2022/12/19 06:51:22;;;;;;;;;2.25;1.75;;;;;19.40;33.93;101352.00;5055076;28;45414;-68
2022/12/19 06:53:48;;;;;;;;;2.25;2.25;;;;;19.40;34.28;101350.22;5053673;28;45374;-67
2022/12/19 06:56:15;;;;;;;;;3.00;3.00;;;;;19.39;34.08;101360.91;5034700;28;45189;-68
2022/12/19 06:58:41;;;;;;;;;2.25;2.25;;;;;19.40;33.99;101368.69;5034637;28;45404;-68
2022/12/19 07:01:06;;;;;;;;;2.50;2.50;;;;;19.40;33.92;101381.03;5034613;27;45475;-68
2022/12/19 07:03:38;;;;;;;;;6.50;3.75;;;;;19.26;33.98;101362.09;5050015;28;45997;-68
2022/12/19 07:06:04;;;;;;;;;3.00;3.00;;;;;19.40;34.20;101381.03;5054927;28;45411;-68
2022/12/19 07:08:29;;;;;;;;;3.25;3.25;;;;;19.40;34.10;101384.50;5054807;28;45292;-68
2022/12/19 07:10:55;;;;;;;;;3.75;3.75;;;;;19.41;34.27;101382.72;5054858;28;45353;-67
2022/12/19 07:13:21;;;;;;;;;2.75;2.75;;;;;19.41;34.22;101369.53;5054336;28;47077;-68
2022/12/19 07:15:47;;;;;;;;;2.00;2.00;;;;;19.37;34.11;101362.88;5054452;28;45367;-68
2022/12/19 07:18:13;;;;;;;;;2.75;2.75;;;;;19.42;34.19;101376.44;5054879;28;45310;-68
2022/12/19 07:20:41;;;;;;;;;2.75;2.75;;;;;19.41;34.05;101366.88;5054628;28;45319;-68
2022/12/19 07:23:10;;;;;;;;;3.00;3.00;;;;;19.43;34.26;101378.09;5054472;28;45959;-68
2022/12/19 07:25:37;;;;;;;;;3.00;3.00;;;;;19.43;33.97;101372.84;5054349;28;45405;-68
2022/12/19 07:28:03;;;;;;;;;1.50;0.75;;;;;19.41;33.93;101374.78;5053002;28;45398;-68
2022/12/19 07:30:29;;;;;;;;;5.00;3.00;;;;;19.43;34.04;101370.19;5054288;28;45434;-69
2022/12/19 07:32:54;;;;;;;;;3.75;2.75;;;;;19.44;34.02;101378.94;5054369;28;46942;-68
2022/12/19 07:35:21;;;;;;;;;2.75;2.75;;;;;19.44;34.12;101378.94;5054481;28;45344;-69
2022/12/19 07:37:46;;;;;;;;;2.00;2.00;;;;;19.33;34.04;101359.72;5054464;28;45372;-68
2022/12/19 07:40:13;;;;;;;;;3.25;2.25;;;;;19.40;34.25;101370.47;5054298;28;45288;-68
2022/12/19 07:42:38;;;;;;;;;4.50;2.50;;;;;19.45;34.25;101368.22;5054044;28;46179;-68
2022/12/19 07:45:04;;;;;;;;;2.50;2.50;;;;;19.44;34.33;101377.13;5054291;28;45427;-68
2022/12/19 07:47:29;;;;;;;;;0.00;0.00;;;;;19.44;34.11;101371.03;5054484;28;45493;-69
2022/12/19 07:49:54;;;;;;;;;3.00;3.00;;;;;19.44;34.11;101382.38;5054224;28;45354;-67
2022/12/19 07:52:20;;;;;;;;;3.25;3.00;;;;;19.43;34.08;101370.19;5054039;28;45309;-69
2022/12/19 07:54:45;;;;;;;;;2.25;2.25;;;;;19.31;34.41;101363.47;5044712;28;45480;-67
2022/12/19 07:57:10;;;;;;;;;4.00;2.00;;;;;19.44;34.25;101381.59;5033941;28;45372;-68
2022/12/19 07:59:36;;;;;;;;;4.75;2.75;;;;;19.31;34.16;101369.56;5034034;28;45399;-68
2022/12/19 08:02:01;;;;;;;;;3.50;2.75;;;;;19.44;34.08;101392.94;5036449;28;47381;-68
2022/12/19 08:04:26;;;;;;;;;2.00;2.00;;;;;19.40;34.41;101387.16;5054107;28;45393;-68
2022/12/19 08:06:52;;;;;;;;;2.25;2.25;;;;;19.40;34.10;101395.06;5054089;28;45533;-68
2022/12/19 08:09:17;;;;;;;;;3.75;2.75;;;;;19.44;34.43;101394.78;5054015;28;45378;-68
2022/12/19 08:11:42;;;;;;;;;2.75;2.75;;;;;19.39;34.33;101388.13;5053707;28;45605;-68
2022/12/19 08:14:08;;;;;;;;;4.25;2.25;;;;;19.38;34.03;101380.38;5053901;28;45320;-68
2022/12/19 08:16:35;;;;;;;;;3.25;1.75;;;;;19.44;34.46;101400.88;5054032;27;45356;-67
2022/12/19 08:19:00;;;;;;;;;5.75;3.75;;;;;19.42;34.19;101384.34;5053987;27;45511;-68
2022/12/19 08:21:25;;;;;;;;;3.00;3.00;;;;;19.44;34.26;101400.06;5053819;28;45230;-68
2022/12/19 08:23:51;;;;;;;;;4.00;3.25;;;;;19.42;34.32;101402.81;5035889;28;45410;-68
2022/12/19 08:26:23;;;;;;;;;3.00;3.00;;;;;19.43;33.97;101415.06;5053599;28;45335;-68
2022/12/19 08:28:49;;;;;;;;;2.00;2.00;;;;;19.44;34.23;101415.91;5053870;28;45435;-69
2022/12/19 08:31:16;;;;;;;;;2.25;2.25;;;;;19.45;34.37;101425.44;5053647;28;45380;-68
2022/12/19 08:33:42;;;;;;;;;4.00;2.00;;;;;19.44;34.31;101419.34;5053537;27;45368;-67
2022/12/19 08:36:11;;;;;;;;;2.25;2.25;;;;;19.43;34.42;101417.69;5053668;28;45230;-69
2022/12/19 08:38:38;;;;;;;;;4.50;2.25;;;;;19.45;34.19;101420.19;5053238;28;45311;-68
2022/12/19 08:41:04;;;;;;;;;3.00;3.00;;;;;19.44;34.36;101427.25;5052981;28;46164;-68
2022/12/19 08:43:30;;;;;;;;;5.75;2.75;;;;;19.44;34.23;101426.44;5053468;28;45284;-68
2022/12/19 08:45:56;;;;;;;;;2.75;2.75;;;;;19.44;34.21;101424.63;5053665;28;45296;-69
2022/12/19 08:48:22;;;;;;;;;2.75;2.25;;;;;19.43;34.53;101425.63;5053565;28;45228;-68
2022/12/19 08:51:00;;;;;;;;;1.75;1.75;;;;;19.44;34.39;101442.28;5052992;28;45901;-68
2022/12/19 08:53:28;;;;;;;;;2.75;2.75;;;;;19.44;34.22;101442.28;5053471;28;45493;-69
2022/12/19 08:55:58;;;;;;;;;2.75;2.75;;;;;19.43;34.18;101446.72;5034432;28;45451;-66
2022/12/19 08:58:24;;;;;;;;;2.00;2.00;;;;;19.43;34.51;101446.72;5033308;28;45452;-67
2022/12/19 09:00:52;;;;;;;;;2.75;2.00;;;;;19.44;34.43;101447.56;5032936;28;46502;-68
2022/12/19 09:03:18;;;;;;;;;2.00;2.00;;;;;19.44;34.35;101442.28;5046224;28;45422;-68
2022/12/19 09:05:43;;;;;;;;;2.00;2.00;;;;;19.44;34.44;101443.09;5053406;28;45365;-68
2022/12/19 09:08:09;;;;;;;;;2.25;2.25;;;;;19.44;34.44;101450.19;5053355;28;45453;-68
2022/12/19 09:10:36;;;;;;;;;2.75;2.75;;;;;19.44;34.18;101458.94;5052879;28;46314;-68
2022/12/19 09:13:02;;;;;;;;;2.50;2.50;;;;;19.43;34.37;101459.91;5053115;28;45420;-68
2022/12/19 09:15:27;;;;;;;;;2.00;2.00;;;;;19.43;34.52;101456.44;5052849;28;45381;-68
2022/12/19 09:17:52;;;;;;;;;2.75;2.75;;;;;19.42;34.50;101457.41;5053335;28;45355;-68
2022/12/19 09:20:18;;;;;;;;;3.00;2.25;;;;;19.37;34.45;101440.22;5053017;28;45757;-68
2022/12/19 09:22:43;;;;;;;;;3.50;2.00;;;;;19.43;34.40;101448.53;5053208;28;45296;-68
2022/12/19 09:25:10;;;;;;;;;3.00;3.00;;;;;19.43;34.59;101441.44;5052754;28;45382;-68
2022/12/19 09:27:35;;;;;;;;;2.75;2.50;;;;;19.43;34.52;101444.09;5053058;28;45572;-68
2022/12/19 09:30:01;;;;;;;;;3.75;3.75;;;;;19.42;34.32;101442.41;5052747;28;47064;-68
2022/12/19 09:32:26;;;;;;;;;5.75;3.50;;;;;19.43;34.13;101448.53;5052813;28;45286;-68
2022/12/19 09:34:51;;;;;;;;;4.75;3.50;;;;;19.37;34.27;101434.94;5052969;28;45351;-68
2022/12/19 09:37:17;;;;;;;;;2.00;1.75;;;;;19.30;34.38;101418.06;5034562;28;45461;-68
2022/12/19 09:39:46;;;;;;;;;2.25;2.25;;;;;19.42;34.46;101437.13;5052694;28;45398;-68
2022/12/19 09:42:38;;;;;;;;;2.00;2.00;;;;;19.42;34.56;101437.13;5052766;28;45239;-68
2022/12/19 09:45:32;;;;;;;;;3.25;2.75;;;;;19.43;34.27;101436.16;5052836;28;45502;-68
2022/12/19 09:47:59;;;;;;;;;1.75;1.75;;;;;19.43;34.13;101443.25;5043350;28;45638;-68
2022/12/19 09:50:55;;;;;;;;;1.50;1.50;;;;;19.43;34.53;101433.53;5052469;28;46152;-68
2022/12/19 09:53:28;;;;;;;;;4.00;2.50;;;;;19.43;34.44;101437.97;5055420;28;45341;-68
2022/12/19 09:55:53;;;;;;;;;3.00;3.00;;;;;19.44;34.54;101437.00;5036823;28;45370;-68
2022/12/19 09:58:39;;;;;;;;;2.00;2.00;;;;;19.44;34.33;101421.97;5035587;28;45357;-68
2022/12/19 10:01:21;;;;;;;;;1.75;1.75;;;;;19.44;34.34;101421.16;5035244;27;46143;-68
2022/12/19 10:03:57;;;;;;;;;4.00;3.00;;;;;19.44;34.53;101435.16;5052744;28;45393;-68
2022/12/19 10:06:23;;;;;;;;;2.00;2.00;;;;;19.45;34.35;101441.28;5055229;28;45427;-68
2022/12/19 10:08:51;;;;;;;;;2.50;2.00;;;;;19.44;34.50;101421.97;5055429;28;45389;-68
2022/12/19 10:11:16;;;;;;;;;2.50;2.00;;;;;19.45;34.61;101417.53;5055428;28;45455;-68
2022/12/19 10:14:01;;;;;;;;;4.25;1.75;;;;;19.44;34.60;101429.91;5055478;28;45408;-68
2022/12/19 10:16:36;;;;;;;;;2.50;1.50;;;;;19.45;34.67;101436.00;5055391;28;45382;-68
2022/12/19 10:19:22;;;;;;;;;1.25;1.00;;;;;19.38;34.32;101436.63;5055346;28;45401;-68
2022/12/19 10:22:03;;;;;;;;;3.25;3.00;;;;;19.42;34.60;101433.66;5054929;28;46107;-68
2022/12/19 10:24:57;;;;;;;;;3.75;3.25;;;;;19.45;34.29;101436.00;5037121;28;45362;-68
2022/12/19 10:27:40;;;;;;;;;2.00;2.00;;;;;19.44;34.52;101429.09;5055355;28;45446;-68
2022/12/19 10:30:16;;;;;;;;;3.50;1.75;;;;;19.44;34.70;101448.38;5055278;28;45356;-68
2022/12/19 10:32:56;;;;;;;;;1.75;1.75;;;;;19.44;34.78;101450.19;5055257;28;45417;-68
2022/12/19 10:35:29;;;;;;;;;1.75;1.75;;;;;19.44;34.70;101437.81;5054769;28;45367;-69
2022/12/19 10:38:09;;;;;;;;;2.75;2.75;;;;;19.45;34.66;101428.09;5055213;28;45285;-68
2022/12/19 10:40:54;;;;;;;;;3.50;2.75;;;;;19.45;34.52;101438.66;5055186;28;45294;-68
2022/12/19 10:43:30;;;;;;;;;3.75;2.25;;;;;19.45;34.45;101436.84;5055088;28;45346;-68
2022/12/19 10:46:01;;;;;;;;;3.25;3.00;;;;;19.45;34.68;101426.28;5055133;28;45506;-68
2022/12/19 10:48:27;;;;;;;;;3.75;3.00;;;;;19.45;34.49;101422.81;5054951;28;45324;-68
2022/12/19 10:50:52;;;;;;;;;4.25;3.25;;;;;19.35;34.51;101405.25;5054532;28;45500;-68
2022/12/19 10:53:27;;;;;;;;;1.75;1.75;;;;;19.45;34.53;101415.72;5054861;28;45352;-68
2022/12/19 10:55:54;;;;;;;;;2.00;2.00;;;;;19.45;34.46;101410.44;5036229;28;45384;-68
2022/12/19 10:58:24;;;;;;;;;4.00;3.00;;;;;19.45;34.70;101413.09;5034743;28;45366;-68
2022/12/19 11:01:08;;;;;;;;;3.00;3.00;;;;;19.45;34.62;101405.19;5034814;28;45510;-68
2022/12/19 11:03:34;;;;;;;;;4.75;2.00;;;;;19.45;34.59;101402.53;5049592;28;46210;-68
2022/12/19 11:06:02;;;;;;;;;3.00;2.00;;;;;19.44;34.65;101389.50;5054408;28;45228;-68
2022/12/19 11:08:35;;;;;;;;;2.00;2.00;;;;;19.45;34.41;101402.53;5054770;28;45461;-68
2022/12/19 11:11:03;;;;;;;;;1.75;1.75;;;;;19.44;34.59;101387.66;5054708;28;45340;-68
2022/12/19 11:13:42;;;;;;;;;4.00;4.00;;;;;19.45;34.52;101383.22;5054426;28;46286;-68
2022/12/19 11:16:08;;;;;;;;;2.00;2.00;;;;;19.45;34.69;101370.03;5054328;28;45336;-68
2022/12/19 11:18:39;;;;;;;;;2.25;2.25;;;;;19.45;34.61;101360.31;5054561;28;45441;-68
2022/12/19 11:21:05;;;;;;;;;2.75;2.75;;;;;19.44;34.77;101356.00;5054453;28;45358;-68
2022/12/19 11:23:31;;;;;;;;;2.00;2.00;;;;;19.44;34.73;101366.56;5054470;28;46318;-68
2022/12/19 11:26:02;;;;;;;;;3.00;2.75;;;;;19.45;34.59;101348.91;5054486;28;45446;-68
2022/12/19 11:28:36;;;;;;;;;4.25;1.75;;;;;19.45;34.88;101344.47;5054441;28;45421;-68
2022/12/19 11:31:15;;;;;;;;;3.25;3.25;;;;;19.44;35.06;101342.00;5054540;28;45281;-68
2022/12/19 11:33:45;;;;;;;;;1.75;1.75;;;;;19.45;34.51;101346.28;5053819;28;46307;-68
2022/12/19 11:36:30;;;;;;;;;3.00;2.00;;;;;19.44;34.41;101348.09;5054252;28;45288;-68